Abilene, Kansas
Current Conditions -  °F | °C
As of 2:53 AM on Thursday 23 Oct 2014 (Local Time) from KSLN Reporting Station
Overcast Overcast  
Wind Chill: 64°   Ceiling: 1800
Heat Index: 64°   Visibility: 10mi
Dew Point: 58°   Wind: 6mph
Humidity: 80%   Direction: 200°SSW
Pressure: 30.07"   Gusts: NA
Location:  38.92°N, 97.21°W
Report Text: KSLN 230753Z AUTO 20005KT 10SM OVC018 18/14 A3007 RMK AO2 SLP172 T01780144
Loading
Personal Weather Stations






























Interactive Weather Map New forecast layout! Learn more

10-Day Weather Forecast

Advertisements
Track Severe Weather on mobile